logo
Search for airport 
image banner adimage banner adimage banner ad
image banner ad

EPCHA - Chalin

Located in , Poland

ICAO - , IATA -

Data provided by Airmate  

General information

Coordinates: N52°35'10" E16°2'1"
Elevation is 285 feet MSL.
 
View others Airports in Greater Poland

Operational data

Special qualification required
Current time UTC:
Current local time:
Weather at : EPZG - Zielona Gora/Babimost ( 52 km )
TAF: TAF EPZG 272030Z 2721/2806 VRB02KT CAVOK PROB40 2721/2724 4000 BR TEMPO 2723/2801 SHRA BKN040CB
View NOTAMs / SUP AIP / TFR affecting this airport [VIEW]
Communications frequencies: [VIEW]

Runways:

RWY identifierQFULength (ft)Width (ft)SurfaceLDA (ft)
16-1°984164GRASS
34-1°984164GRASS

Airport contact information

Address: Poland

Satellite view of EPCHA